Time;durP1;ratioP1;P1;durP2;ratioP2;P2;SDS_P1;SDS_P2;PMS_P1;PMS_P2;Temp;Humidity;BMP_temperature;BMP_pressure;BME280_temperature;BME280_humidity;BME280_pressure;Samples;Min_cycle;Max_cycle;Signal;HPM_P1;HPM_P2
2023/03/19 00:00:42;;;;;;;0.60;0.40;;;;;;;5.01;34.98;101302.00;10517319;28;20505;-82
2023/03/19 00:05:52;;;;;;;1.25;0.68;;;;;;;5.06;35.31;101296.72;10511591;28;20048;-82
2023/03/19 00:10:54;;;;;;;3.25;0.80;;;;;;;5.13;35.39;101299.34;10534358;28;20071;-81
2023/03/19 00:15:56;;;;;;;0.90;0.70;;;;;;;4.80;35.14;101297.88;10534729;28;20493;-81
2023/03/19 00:20:58;;;;;;;1.15;0.77;;;;;;;4.84;35.26;101288.19;10533285;28;20044;-81
2023/03/19 00:26:01;;;;;;;0.85;0.65;;;;;;;4.99;35.86;101284.25;10516801;28;20044;-80
2023/03/19 00:31:11;;;;;;;0.68;0.60;;;;;;;5.02;36.00;101286.50;10534409;28;20505;-81
2023/03/19 00:36:15;;;;;;;0.82;0.82;;;;;;;5.10;35.43;101283.50;10516166;28;20047;-80
2023/03/19 00:41:17;;;;;;;1.40;0.90;;;;;;;4.83;36.05;101280.25;10500575;28;20041;-81
2023/03/19 00:46:20;;;;;;;2.22;0.95;;;;;;;4.90;36.04;101277.47;10490628;28;20093;-82
2023/03/19 00:51:22;;;;;;;0.60;0.50;;;;;;;4.84;37.03;101273.75;10490669;28;20606;-81
2023/03/19 00:56:26;;;;;;;0.70;0.63;;;;;;;5.13;36.80;101272.97;10492042;28;20037;-80
2023/03/19 01:01:28;;;;;;;4.78;0.95;;;;;;;5.28;35.77;101264.41;10496562;28;20044;-81
2023/03/19 01:06:31;;;;;;;1.35;0.90;;;;;;;5.36;35.36;101255.91;10519516;28;20045;-81
2023/03/19 01:11:33;;;;;;;1.45;0.70;;;;;;;5.06;36.35;101244.22;10520758;28;20044;-80
2023/03/19 01:16:35;;;;;;;1.02;0.60;;;;;;;4.87;37.07;101251.59;10510213;28;20044;-81
2023/03/19 01:21:38;;;;;;;0.90;0.70;;;;;;;4.61;38.21;101230.13;10510788;28;20071;-81
2023/03/19 01:26:41;;;;;;;2.08;0.80;;;;;;;4.31;39.16;101241.75;10495306;28;20032;-81
2023/03/19 01:31:53;;;;;;;0.73;0.55;;;;;;;4.21;39.33;101244.16;10492133;28;20032;-79
2023/03/19 01:37:19;;;;;;;1.98;0.77;;;;;;;4.00;39.99;101229.13;10506333;28;20066;-80
2023/03/19 01:42:23;;;;;;;0.93;0.80;;;;;;;4.20;41.21;101250.66;10501701;28;20041;-80
2023/03/19 01:47:43;;;;;;;0.65;0.65;;;;;;;4.20;41.20;101239.78;10495765;28;20040;-81
2023/03/19 01:52:45;;;;;;;1.17;0.80;;;;;;;4.12;41.03;101229.19;10512283;28;20043;-80
2023/03/19 01:58:10;;;;;;;0.95;0.70;;;;;;;4.45;40.95;101226.97;10528643;28;20036;-81
2023/03/19 02:03:49;;;;;;;0.70;0.70;;;;;;;4.68;40.18;101217.28;10434627;28;20527;-81
2023/03/19 02:08:55;;;;;;;0.97;0.87;;;;;;;4.88;39.77;101208.91;10479882;28;20409;-80
2023/03/19 02:13:57;;;;;;;1.35;0.70;;;;;;;4.68;39.16;101209.13;10510002;28;20060;-81
2023/03/19 02:19:00;;;;;;;0.70;0.65;;;;;;;4.94;38.74;101210.69;10492064;28;20048;-82
2023/03/19 02:24:18;;;;;;;1.13;0.80;;;;;;;4.78;38.80;101209.44;10501542;28;20052;-80
2023/03/19 02:29:37;;;;;;;3.22;0.80;;;;;;;5.18;38.39;101195.28;10509833;28;20032;-80
2023/03/19 02:34:41;;;;;;;1.17;0.90;;;;;;;5.01;38.09;101179.59;10503816;28;20040;-80
2023/03/19 02:39:50;;;;;;;2.22;0.80;;;;;;;4.96;37.95;101168.59;10489611;28;20035;-80
2023/03/19 02:44:53;;;;;;;1.65;0.98;;;;;;;4.92;38.02;101172.03;10476994;28;20037;-80
2023/03/19 02:49:55;;;;;;;2.80;0.73;;;;;;;5.00;37.69;101180.66;10474066;28;20040;-80
2023/03/19 02:55:24;;;;;;;2.33;1.08;;;;;;;4.59;37.77;101162.41;10511395;28;20044;-80
2023/03/19 03:00:51;;;;;;;2.45;0.70;;;;;;;4.13;39.54;101177.38;10504949;28;20516;-82
2023/03/19 03:05:54;;;;;;;0.60;0.60;;;;;;;4.57;39.77;101185.47;10491987;28;20505;-82
2023/03/19 03:10:57;;;;;;;1.35;0.90;;;;;;;4.48;39.85;101177.59;10491237;28;20048;-80
2023/03/19 03:16:00;;;;;;;1.27;0.98;;;;;;;4.57;40.22;101172.69;10514167;28;20477;-80
2023/03/19 03:21:03;;;;;;;0.93;0.88;;;;;;;4.47;40.39;101177.81;10507481;28;20059;-80
2023/03/19 03:26:06;;;;;;;4.32;1.08;;;;;;;4.46;40.72;101174.28;10500312;28;20048;-80
2023/03/19 03:31:13;;;;;;;4.93;1.30;;;;;;;4.85;40.34;101163.94;10507475;28;20044;-81
2023/03/19 03:36:15;;;;;;;2.00;1.02;;;;;;;5.12;40.09;101164.41;10482695;28;20437;-81
2023/03/19 03:41:21;;;;;;;2.17;1.17;;;;;;;4.88;40.10;101162.69;10490702;28;20052;-81
2023/03/19 03:46:23;;;;;;;2.35;0.90;;;;;;;4.66;40.78;101160.44;10506466;28;20048;-80
2023/03/19 03:51:30;;;;;;;3.47;1.00;;;;;;;4.69;41.02;101167.31;10506263;28;20040;-80
2023/03/19 03:56:32;;;;;;;3.30;1.10;;;;;;;4.63;41.01;101168.22;10479324;28;20048;-81
2023/03/19 04:01:39;;;;;;;2.40;1.23;;;;;;;4.29;41.18;101170.50;10521020;28;20044;-81
2023/03/19 04:06:41;;;;;;;2.38;1.00;;;;;;;4.49;41.94;101165.66;10493210;28;20094;-80
2023/03/19 04:12:09;;;;;;;2.85;0.98;;;;;;;4.53;41.43;101169.63;10501187;28;20746;-81
2023/03/19 04:17:12;;;;;;;3.60;1.10;;;;;;;4.33;40.96;101163.56;10487123;28;20060;-81
2023/03/19 04:22:18;;;;;;;1.10;1.00;;;;;;;4.39;40.66;101165.38;10513596;28;20658;-85
2023/03/19 04:27:20;;;;;;;1.35;1.00;;;;;;;3.97;40.86;101164.38;10512104;28;20052;-81
2023/03/19 04:32:27;;;;;;;2.30;0.95;;;;;;;3.91;40.84;101163.41;10505214;28;20049;-80
2023/03/19 04:37:30;;;;;;;4.90;1.30;;;;;;;3.73;40.83;101159.84;10499765;28;20044;-80
2023/03/19 04:42:32;;;;;;;1.42;0.80;;;;;;;3.94;40.52;101154.81;10515973;28;20044;-80
2023/03/19 04:48:00;;;;;;;2.03;1.17;;;;;;;3.84;40.73;101143.66;10529225;28;20517;-79
2023/03/19 04:53:04;;;;;;;6.13;1.23;;;;;;;3.89;40.80;101141.09;10515427;28;20055;-80
2023/03/19 04:58:59;;;;;;;1.53;0.93;;;;;;;4.28;40.93;101138.97;10511667;28;20047;-81
2023/03/19 05:04:06;;;;;;;2.70;1.33;;;;;;;4.27;40.40;101139.19;10532755;28;20132;-80
2023/03/19 05:09:10;;;;;;;1.77;1.10;;;;;;;4.20;40.30;101136.56;10498694;28;20048;-80
2023/03/19 05:14:12;;;;;;;2.42;1.38;;;;;;;4.17;40.68;101135.16;10498130;28;20051;-80
2023/03/19 05:19:34;;;;;;;4.18;1.20;;;;;;;4.13;40.72;101135.81;10517505;28;20044;-81
2023/03/19 05:24:37;;;;;;;2.83;1.45;;;;;;;4.06;40.86;101130.47;10511871;28;20402;-80
2023/03/19 05:29:39;;;;;;;2.60;1.30;;;;;;;4.39;41.19;101134.69;10496370;28;20032;-80
2023/03/19 05:35:07;;;;;;;2.67;1.13;;;;;;;4.30;40.73;101141.47;10531445;28;20494;-80
2023/03/19 05:40:15;;;;;;;3.38;1.35;;;;;;;4.52;40.35;101140.78;10535076;28;20139;-80
2023/03/19 05:45:20;;;;;;;2.22;1.38;;;;;;;4.26;40.90;101137.53;10555421;28;20036;-80
2023/03/19 05:50:27;;;;;;;3.30;1.35;;;;;;;4.46;40.60;101130.81;10555196;28;20035;-80
2023/03/19 05:55:54;;;;;;;2.35;1.38;;;;;;;4.37;40.87;101143.06;10541944;28;20051;-81
2023/03/19 06:01:02;;;;;;;2.47;1.60;;;;;;;4.67;41.44;101139.50;10534013;28;20045;-82
2023/03/19 06:06:05;;;;;;;4.10;1.33;;;;;;;4.57;41.18;101131.94;10494947;28;20047;-81
2023/03/19 06:11:14;;;;;;;2.22;1.20;;;;;;;4.43;41.50;101133.97;10511463;28;20040;-80
2023/03/19 06:16:24;;;;;;;2.80;1.33;;;;;;;4.34;41.50;101132.66;10479860;28;20040;-82
2023/03/19 06:21:29;;;;;;;5.95;1.67;;;;;;;4.23;41.99;101139.66;10512238;28;20040;-81
2023/03/19 06:26:34;;;;;;;3.33;1.75;;;;;;;4.34;42.85;101134.50;10479269;28;20040;-80
2023/03/19 06:31:43;;;;;;;5.80;1.63;;;;;;;4.54;43.09;101145.97;10511770;28;20047;-80
2023/03/19 06:36:56;;;;;;;4.55;1.40;;;;;;;4.70;42.37;101137.19;10493805;28;20127;-81
2023/03/19 06:42:08;;;;;;;4.05;1.17;;;;;;;4.77;42.45;101145.25;10511973;28;20102;-80
2023/03/19 06:47:17;;;;;;;5.45;1.80;;;;;;;4.77;44.19;101139.81;10478562;28;20039;-79
2023/03/19 06:52:21;;;;;;;2.67;1.45;;;;;;;5.15;41.62;101153.88;10495043;28;20044;-81
2023/03/19 06:57:23;;;;;;;3.92;1.67;;;;;;;4.51;43.06;101151.84;10524023;28;20036;-80
2023/03/19 07:02:26;;;;;;;4.68;1.70;;;;;;;4.16;43.64;101149.75;10487138;28;20043;-80
2023/03/19 07:07:28;;;;;;;2.85;1.10;;;;;;;4.19;43.06;101141.19;10486532;28;20048;-80
2023/03/19 07:12:31;;;;;;;4.95;1.63;;;;;;;4.01;43.57;101143.06;10460255;28;20136;-80
2023/03/19 07:17:33;;;;;;;3.80;1.27;;;;;;;3.99;44.01;101156.84;10529209;28;20044;-83
2023/03/19 07:22:38;;;;;;;1.20;0.95;;;;;;;4.10;43.60;101141.69;10507249;28;20033;-84
2023/03/19 07:27:44;;;;;;;;;;;;;;;4.01;44.10;101148.50;10492287;28;20131;-81
2023/03/19 07:32:46;;;;;;;4.97;1.25;;;;;;;4.10;44.40;101147.13;10452317;28;19917;-79
2023/03/19 07:37:48;;;;;;;5.72;1.60;;;;;;;4.37;44.90;101142.22;10486480;28;20040;-81
2023/03/19 07:42:51;;;;;;;4.32;1.17;;;;;;;4.60;44.61;101145.06;10470900;28;20036;-82
2023/03/19 07:47:53;;;;;;;5.45;1.70;;;;;;;4.94;43.62;101154.41;10492766;28;20045;-84
2023/03/19 07:52:55;;;;;;;2.22;1.27;;;;;;;5.11;43.84;101149.97;10493213;28;20033;-83
2023/03/19 07:57:58;;;;;;;2.72;1.20;;;;;;;5.14;43.79;101146.78;10499763;28;20029;-81
2023/03/19 08:03:00;;;;;;;5.18;1.30;;;;;;;5.38;43.87;101141.38;10482259;28;20081;-80
2023/03/19 08:08:03;;;;;;;3.05;1.17;;;;;;;5.96;42.71;101146.88;10459871;28;20418;-81
2023/03/19 08:13:05;;;;;;;2.85;1.20;;;;;;;5.83;42.73;101141.66;10483019;28;20059;-82
2023/03/19 08:18:07;;;;;;;3.55;1.50;;;;;;;5.86;42.54;101132.16;10526588;28;20051;-82
2023/03/19 08:23:10;;;;;;;3.40;1.60;;;;;;;5.83;43.01;101141.66;10565995;28;20036;-82
2023/03/19 08:28:13;;;;;;;2.50;1.60;;;;;;;6.16;42.48;101135.59;10566506;28;20077;-81
2023/03/19 08:33:15;;;;;;;2.17;1.50;;;;;;;7.03;41.58;101140.03;10529117;28;20040;-80
2023/03/19 08:38:18;;;;;;;3.33;1.77;;;;;;;7.21;41.80;101137.09;10525716;28;20040;-82
2023/03/19 08:43:21;;;;;;;2.08;1.23;;;;;;;6.64;41.86;101132.50;10507749;28;20512;-83
2023/03/19 08:48:23;;;;;;;2.42;1.63;;;;;;;6.19;42.46;101134.28;10523759;28;20052;-81
2023/03/19 08:53:25;;;;;;;3.67;1.55;;;;;;;6.04;43.52;101141.06;10501966;28;20044;-82
2023/03/19 08:58:27;;;;;;;3.25;1.63;;;;;;;5.98;43.66;101141.19;10537709;28;20413;-82
2023/03/19 09:03:30;;;;;;;2.60;1.70;;;;;;;5.71;44.85;101138.09;10508911;28;20051;-81
2023/03/19 09:08:33;;;;;;;3.45;1.90;;;;;;;5.89;44.32;101137.97;10509132;28;20045;-82
2023/03/19 09:13:36;;;;;;;4.35;1.83;;;;;;;5.74;44.83;101135.75;10501519;28;20498;-82
2023/03/19 09:18:38;;;;;;;4.10;1.70;;;;;;;5.78;44.54;101138.00;10495913;28;20040;-82
2023/03/19 09:23:40;;;;;;;4.20;2.25;;;;;;;5.86;45.19;101126.72;10472899;28;20438;-83
2023/03/19 09:28:42;;;;;;;4.70;1.83;;;;;;;5.92;45.27;101132.09;10454358;28;20048;-82
2023/03/19 09:33:45;;;;;;;2.45;1.50;;;;;;;5.93;45.19;101130.19;10497420;28;20402;-81
2023/03/19 09:38:47;;;;;;;6.22;2.20;;;;;;;5.82;45.46;101123.66;10531197;28;20405;-82
2023/03/19 09:43:55;;;;;;;4.05;1.80;;;;;;;5.86;46.07;101126.72;10530789;28;20497;-82
2023/03/19 09:49:11;;;;;;;5.13;1.90;;;;;;;5.98;45.84;101133.84;10531698;28;20044;-82
2023/03/19 09:54:35;;;;;;;3.95;1.50;;;;;;;6.21;45.58;101113.91;10513449;28;20394;-81
2023/03/19 09:59:37;;;;;;;2.60;1.80;;;;;;;6.25;46.37;101117.81;10496859;28;20052;-82
2023/03/19 10:05:20;;;;;;;2.95;1.83;;;;;;;6.35;45.97;101126.19;10511696;28;20048;-81
2023/03/19 10:10:36;;;;;;;4.53;1.65;;;;;;;6.43;45.89;101124.19;10488938;28;20045;-81
2023/03/19 10:15:39;;;;;;;4.03;2.10;;;;;;;6.44;46.17;101131.28;10510511;28;20037;-81
2023/03/19 10:20:44;;;;;;;2.75;1.58;;;;;;;6.40;46.47;101138.25;10511798;28;20480;-81
2023/03/19 10:25:46;;;;;;;3.60;1.85;;;;;;;6.41;46.31;101115.38;10530712;28;20048;-81
2023/03/19 10:31:13;;;;;;;2.70;1.65;;;;;;;6.34;46.66;101119.09;10511621;28;20409;-82
2023/03/19 10:36:19;;;;;;;3.85;1.88;;;;;;;6.21;46.95;101124.81;10508849;28;20047;-82
2023/03/19 10:41:39;;;;;;;3.38;2.10;;;;;;;6.32;46.73;101132.13;10510962;28;20053;-81
2023/03/19 10:46:42;;;;;;;4.90;1.80;;;;;;;6.25;47.08;101126.00;10511197;28;20521;-82
2023/03/19 10:51:45;;;;;;;2.33;1.77;;;;;;;6.04;47.64;101132.88;10510993;28;20044;-81
2023/03/19 10:56:48;;;;;;;3.25;1.70;;;;;;;6.07;48.22;101117.13;10510734;28;20437;-82
2023/03/19 11:01:58;;;;;;;3.70;2.40;;;;;;;6.07;48.18;101126.13;10510538;28;20047;-82
2023/03/19 11:07:12;;;;;;;2.85;1.88;;;;;;;5.94;48.27;101119.06;10510606;28;20044;-81
2023/03/19 11:12:19;;;;;;;3.97;2.17;;;;;;;6.10;47.97;101114.78;10477585;28;20421;-82
2023/03/19 11:17:25;;;;;;;5.33;1.90;;;;;;;6.14;48.35;101105.03;10496386;28;20041;-81
2023/03/19 11:22:33;;;;;;;2.40;1.48;;;;;;;6.14;48.72;101113.22;10493634;28;20040;-82
2023/03/19 11:27:35;;;;;;;3.13;1.50;;;;;;;6.22;48.61;101112.84;10533821;28;20036;-81
2023/03/19 11:32:55;;;;;;;5.57;1.98;;;;;;;6.24;49.00;101101.69;10508542;28;20044;-81
2023/03/19 11:38:01;;;;;;;3.05;1.88;;;;;;;6.35;48.90;101107.13;10541784;28;20044;-81
2023/03/19 11:43:41;;;;;;;4.47;2.30;;;;;;;6.14;49.87;101107.78;10541553;28;20040;-81
2023/03/19 11:49:14;;;;;;;3.03;2.00;;;;;;;6.03;49.84;101097.72;10541151;28;20432;-81
2023/03/19 11:54:28;;;;;;;3.10;2.03;;;;;;;6.05;49.38;101096.41;10523182;28;20044;-82
2023/03/19 11:59:58;;;;;;;4.32;2.28;;;;;;;6.03;49.87;101098.53;10522368;28;20047;-82
2023/03/19 12:05:18;;;;;;;8.05;2.53;;;;;;;6.11;50.28;101104.69;10521134;28;20067;-82
2023/03/19 12:10:26;;;;;;;7.43;2.60;;;;;;;6.20;49.31;101104.06;10522393;28;20044;-82
2023/03/19 12:16:02;;;;;;;7.72;2.22;;;;;;;6.28;49.78;101094.72;10527170;28;20037;-81
2023/03/19 12:21:16;;;;;;;4.10;2.47;;;;;;;6.23;50.24;101092.69;10488690;28;20063;-81
2023/03/19 12:26:30;;;;;;;5.45;2.60;;;;;;;6.23;49.57;101084.50;10507023;28;20078;-82
2023/03/19 12:32:08;;;;;;;5.97;3.00;;;;;;;6.36;48.85;101077.97;10481802;28;20045;-82
2023/03/19 12:37:21;;;;;;;6.80;2.97;;;;;;;6.41;49.31;101079.94;10497039;28;20056;-80
2023/03/19 12:42:28;;;;;;;4.43;3.13;;;;;;;6.45;49.48;101067.50;10475012;28;20040;-81
2023/03/19 12:47:34;;;;;;;3.92;2.35;;;;;;;6.47;49.00;101070.81;10511334;28;20029;-81
2023/03/19 12:52:38;;;;;;;7.00;3.00;;;;;;;6.39;49.57;101069.28;10478899;28;20040;-82
2023/03/19 13:03:37;;;;;;;5.22;2.72;;;;;;;6.24;49.49;101069.81;10516390;28;20058;-82
2023/03/19 13:09:02;;;;;;;4.40;2.45;;;;;;;6.29;49.87;101064.47;10504803;28;20032;-83
2023/03/19 13:14:22;;;;;;;3.67;2.22;;;;;;;6.17;49.61;101066.41;10483191;28;20155;-82
2023/03/19 13:19:35;;;;;;;4.78;2.55;;;;;;;6.16;50.42;101058.47;10514893;28;20058;-82
2023/03/19 13:24:42;;;;;;;4.03;2.30;;;;;;;6.10;51.22;101064.91;10475252;28;20052;-82
2023/03/19 13:30:05;;;;;;;3.10;2.13;;;;;;;6.00;50.83;101055.44;10513906;28;20049;-81
2023/03/19 13:35:29;;;;;;;6.82;2.38;;;;;;;5.96;51.20;101053.44;10514220;28;20425;-82
2023/03/19 13:40:49;;;;;;;3.30;2.40;;;;;;;5.94;51.52;101052.88;10532492;28;20036;-83
2023/03/19 13:46:04;;;;;;;4.88;2.10;;;;;;;5.85;51.30;101054.25;10497012;28;20494;-86
2023/03/19 13:51:17;;;;;;;3.55;2.58;;;;;;;5.92;51.49;101049.56;10486367;28;20433;-86
2023/03/19 13:56:22;;;;;;;3.90;2.22;;;;;;;5.87;51.75;101049.41;10528173;28;20043;-83
2023/03/19 14:01:30;;;;;;;8.45;2.42;;;;;;;5.74;51.49;101040.44;10537430;28;20037;-82
2023/03/19 14:06:45;;;;;;;4.95;2.70;;;;;;;5.74;52.00;101034.16;10514542;28;20051;-85
2023/03/19 14:11:51;;;;;;;3.60;2.10;;;;;;;5.92;52.38;101027.75;10506233;28;20063;-83
2023/03/19 14:16:58;;;;;;;3.40;2.47;;;;;;;6.11;51.52;101015.63;10523174;28;20055;-84
2023/03/19 14:22:40;;;;;;;3.55;2.40;;;;;;;6.09;51.26;101017.75;10530135;28;20059;-84
2023/03/19 14:27:46;;;;;;;4.72;2.25;;;;;;;6.14;52.09;101012.41;10456192;28;20053;-85
2023/03/19 14:32:48;;;;;;;6.80;2.70;;;;;;;6.15;52.18;101011.34;10476053;28;20040;-86
2023/03/19 14:37:53;;;;;;;4.35;2.42;;;;;;;6.04;52.35;101007.56;10479524;28;20041;-81
2023/03/19 14:43:02;;;;;;;3.78;2.22;;;;;;;6.05;52.26;101003.78;10485646;28;20037;-81
2023/03/19 14:48:28;;;;;;;5.65;2.75;;;;;;;5.96;52.63;101012.59;10480154;28;20052;-81
2023/03/19 14:53:40;;;;;;;3.50;1.95;;;;;;;5.92;52.86;101016.88;10497058;28;20052;-81
2023/03/19 14:58:55;;;;;;;3.40;2.15;;;;;;;6.04;52.77;101012.19;10513235;28;20040;-82
2023/03/19 15:04:02;;;;;;;7.93;2.60;;;;;;;6.02;52.79;101022.50;10503854;28;20490;-86
2023/03/19 15:09:25;;;;;;;4.00;2.63;;;;;;;5.83;53.13;101015.53;10487268;28;20053;-80
2023/03/19 15:15:03;;;;;;;2.85;2.40;;;;;;;5.86;53.87;101015.06;10515927;28;20528;-81
2023/03/19 15:20:40;;;;;;;6.05;3.05;;;;;;;5.82;54.09;101022.06;10512329;28;20063;-80
2023/03/19 15:25:48;;;;;;;4.78;2.60;;;;;;;5.87;53.32;101022.16;10536976;28;20048;-79
2023/03/19 15:31:03;;;;;;;3.42;2.53;;;;;;;5.86;53.41;101023.22;10512443;28;20041;-81
2023/03/19 15:36:25;;;;;;;5.13;2.63;;;;;;;5.83;53.76;101023.72;10485379;28;20067;-79
2023/03/19 15:41:30;;;;;;;5.07;2.58;;;;;;;5.79;53.62;101020.66;10490641;28;20040;-80
2023/03/19 15:46:33;;;;;;;5.28;2.75;;;;;;;5.80;53.88;101027.75;10503057;28;20042;-79
2023/03/19 15:51:43;;;;;;;5.78;2.85;;;;;;;5.85;53.73;101032.47;10490236;28;20045;-80
2023/03/19 15:56:48;;;;;;;3.47;2.08;;;;;;;5.84;53.85;101028.09;10501806;28;20052;-80
2023/03/19 16:01:50;;;;;;;3.60;2.50;;;;;;;5.82;54.00;101028.34;10522116;28;20049;-78
2023/03/19 16:06:53;;;;;;;4.70;2.38;;;;;;;5.99;53.85;101036.63;10520038;28;20037;-79
2023/03/19 16:11:55;;;;;;;6.63;3.22;;;;;;;5.98;54.01;101034.97;10473559;28;20449;-82
2023/03/19 16:17:01;;;;;;;2.63;2.22;;;;;;;6.02;54.22;101036.13;10509679;28;20552;-80
2023/03/19 16:22:12;;;;;;;7.78;2.85;;;;;;;5.79;54.66;101041.63;10538946;28;20048;-81
2023/03/19 16:27:17;;;;;;;6.07;3.15;;;;;;;5.92;53.74;101041.38;10513205;28;20075;-81
2023/03/19 16:32:22;;;;;;;5.60;2.88;;;;;;;5.75;53.65;101038.53;10498510;28;20040;-84
2023/03/19 16:37:37;;;;;;;5.40;2.85;;;;;;;5.89;53.80;101033.63;10539172;28;20036;-84
2023/03/19 16:42:47;;;;;;;5.07;3.00;;;;;;;5.86;53.16;101036.84;10497129;28;20052;-82
2023/03/19 16:47:54;;;;;;;8.07;3.88;;;;;;;5.90;52.87;101033.47;10504206;28;20024;-84
2023/03/19 16:53:02;;;;;;;6.80;2.88;;;;;;;5.93;53.35;101032.97;10500524;28;20126;-81
2023/03/19 16:58:10;;;;;;;10.35;3.40;;;;;;;5.88;53.27;101037.44;10495351;28;20045;-80
2023/03/19 17:03:17;;;;;;;8.27;2.80;;;;;;;5.96;53.69;101032.47;10522505;28;20097;-82
2023/03/19 17:08:20;;;;;;;8.13;2.80;;;;;;;5.88;54.09;101037.44;10531532;28;20045;-84
2023/03/19 17:13:30;;;;;;;7.13;3.53;;;;;;;5.71;54.15;101034.63;10505532;28;20510;-81
2023/03/19 17:18:35;;;;;;;9.57;3.58;;;;;;;5.73;54.65;101036.06;10461880;28;20045;-82
2023/03/19 17:23:40;;;;;;;5.40;3.20;;;;;;;5.64;55.17;101034.75;10477731;28;20059;-82
2023/03/19 17:28:42;;;;;;;7.68;3.10;;;;;;;5.62;56.25;101033.34;10490940;28;20419;-83
2023/03/19 17:33:48;;;;;;;5.03;2.78;;;;;;;5.72;56.07;101030.81;10479573;28;20036;-82
2023/03/19 17:38:50;;;;;;;6.68;3.05;;;;;;;5.61;56.37;101018.91;10510437;28;20052;-82
2023/03/19 17:43:52;;;;;;;3.72;2.60;;;;;;;5.71;56.44;101031.91;10518623;28;20032;-82
2023/03/19 17:48:55;;;;;;;5.05;2.95;;;;;;;5.69;56.49;101032.13;10496687;28;20081;-83
2023/03/19 17:53:57;;;;;;;4.50;2.88;;;;;;;5.77;56.14;101030.13;10521411;28;20413;-80
2023/03/19 17:58:59;;;;;;;3.95;2.05;;;;;;;5.55;57.40;101021.75;10532217;28;20048;-81
2023/03/19 18:04:02;;;;;;;4.13;2.20;;;;;;;5.36;57.42;101026.50;10525096;28;20054;-81
2023/03/19 18:09:04;;;;;;;4.90;2.20;;;;;;;5.35;58.38;101031.09;10511677;28;20047;-79
2023/03/19 18:14:07;;;;;;;4.13;2.45;;;;;;;5.45;57.93;101027.81;10517498;28;20040;-82
2023/03/19 18:19:17;;;;;;;6.45;2.67;;;;;;;5.50;57.81;101011.56;10500767;28;20047;-82
2023/03/19 18:24:19;;;;;;;4.65;2.42;;;;;;;5.39;57.71;101015.16;10507799;28;20053;-80
2023/03/19 18:29:21;;;;;;;4.00;2.17;;;;;;;5.49;58.34;101003.66;10481029;28;20524;-79
2023/03/19 18:34:24;;;;;;;3.83;2.65;;;;;;;5.60;58.43;101003.66;10527078;28;20045;-85
2023/03/19 18:39:28;;;;;;;4.45;2.55;;;;;;;5.68;58.11;101003.25;10471305;28;20044;-84
2023/03/19 18:44:31;;;;;;;6.97;2.83;;;;;;;5.69;57.60;100999.47;10528685;28;20040;-84
2023/03/19 18:49:36;;;;;;;4.60;2.42;;;;;;;5.63;57.65;100995.00;10525852;28;20139;-84
2023/03/19 18:54:38;;;;;;;4.72;2.95;;;;;;;5.61;58.10;100996.31;10484222;28;20485;-83
2023/03/19 18:59:43;;;;;;;6.57;2.95;;;;;;;5.67;57.64;101000.78;10485888;28;20040;-83
2023/03/19 19:04:45;;;;;;;6.75;3.22;;;;;;;5.62;57.82;100996.06;10480777;28;20043;-85
2023/03/19 19:09:50;;;;;;;5.35;2.88;;;;;;;5.62;57.69;100992.50;10512103;28;20048;-84
2023/03/19 19:14:52;;;;;;;5.80;2.80;;;;;;;5.51;57.73;100996.06;10520365;28;20043;-84
2023/03/19 19:19:55;;;;;;;5.30;3.03;;;;;;;5.61;58.31;101002.56;10468421;28;20239;-85
2023/03/19 19:24:57;;;;;;;7.95;3.10;;;;;;;5.84;57.79;100996.25;10477338;28;20052;-83
2023/03/19 19:30:02;;;;;;;5.25;2.70;;;;;;;5.89;57.31;100993.63;10472906;28;20405;-85
2023/03/19 19:35:20;;;;;;;5.68;2.80;;;;;;;5.86;57.15;100999.53;10453367;28;20040;-84
2023/03/19 19:40:28;;;;;;;6.20;2.95;;;;;;;5.88;57.49;100994.69;10497967;28;20516;-86
2023/03/19 19:45:38;;;;;;;7.05;2.97;;;;;;;5.84;57.70;100995.41;10469720;28;20037;-85
2023/03/19 19:50:41;;;;;;;7.00;2.90;;;;;;;5.80;57.46;100991.53;10457958;28;20497;-85
2023/03/19 19:55:44;;;;;;;5.60;3.40;;;;;;;5.81;57.45;100995.91;10497026;28;20036;-85
2023/03/19 20:00:46;;;;;;;7.00;3.08;;;;;;;5.68;57.96;100995.09;10493843;28;20497;-86
2023/03/19 20:05:49;;;;;;;7.32;3.67;;;;;;;5.78;58.11;100994.50;10500481;28;20136;-85
2023/03/19 20:10:52;;;;;;;4.68;3.00;;;;;;;5.61;58.51;100980.78;10510251;28;20052;-84
2023/03/19 20:15:56;;;;;;;4.57;2.58;;;;;;;5.43;59.37;100973.63;10485773;28;20032;-86
2023/03/19 20:21:03;;;;;;;4.75;3.38;;;;;;;5.53;59.25;100972.16;10497247;28;20047;-83
2023/03/19 20:26:05;;;;;;;7.55;3.53;;;;;;;5.54;59.65;100982.81;10491410;28;20071;-84
2023/03/19 20:31:28;;;;;;;6.53;3.25;;;;;;;5.54;60.04;100985.53;10496099;28;20060;-85
2023/03/19 20:36:30;;;;;;;7.32;3.13;;;;;;;5.58;60.28;100981.28;10497547;28;20037;-84
2023/03/19 20:41:33;;;;;;;4.97;2.80;;;;;;;5.38;60.79;100981.66;10501608;28;20067;-83
2023/03/19 20:46:35;;;;;;;5.75;3.28;;;;;;;5.20;61.49;100976.34;10491564;28;20063;-82
2023/03/19 20:51:37;;;;;;;5.45;3.70;;;;;;;5.28;61.65;100970.53;10490586;28;20040;-82
2023/03/19 20:56:40;;;;;;;5.03;3.10;;;;;;;5.46;61.50;100977.75;10483643;28;20048;-84
2023/03/19 21:01:42;;;;;;;5.35;3.30;;;;;;;5.25;61.83;100976.47;10488519;28;20032;-84
2023/03/19 21:06:45;;;;;;;5.10;3.53;;;;;;;5.38;61.99;100976.22;10504396;28;20048;-83
2023/03/19 21:11:48;;;;;;;5.78;3.35;;;;;;;5.29;62.18;100972.19;10479865;28;20056;-84
2023/03/19 21:16:50;;;;;;;5.10;3.92;;;;;;;5.54;61.50;100966.47;10494710;28;20520;-83
2023/03/19 21:21:53;;;;;;;5.18;3.53;;;;;;;5.63;61.29;100959.59;10485726;28;20059;-83
2023/03/19 21:26:55;;;;;;;5.38;3.75;;;;;;;5.48;61.82;100962.00;10448791;28;20037;-84
2023/03/19 21:31:58;;;;;;;6.13;3.45;;;;;;;5.47;62.07;100962.25;10495009;28;20048;-83
2023/03/19 21:37:00;;;;;;;5.10;3.45;;;;;;;5.34;62.79;100963.31;10467681;28;20048;-84
2023/03/19 21:42:05;;;;;;;7.15;3.78;;;;;;;5.24;62.55;100960.38;10507232;28;20051;-84
2023/03/19 21:47:24;;;;;;;5.03;3.20;;;;;;;5.35;62.91;100952.19;10504530;28;20505;-84
2023/03/19 21:52:27;;;;;;;5.38;3.80;;;;;;;5.32;62.83;100949.13;10473667;28;20049;-84
2023/03/19 21:57:30;;;;;;;7.80;4.00;;;;;;;5.41;62.80;100939.53;10490454;28;20478;-83
2023/03/19 22:02:47;;;;;;;7.00;3.72;;;;;;;5.29;62.86;100947.72;10490363;28;20036;-83
2023/03/19 22:07:51;;;;;;;3.90;3.42;;;;;;;5.24;63.20;100950.34;10471408;28;20422;-84
2023/03/19 22:12:53;;;;;;;6.72;3.97;;;;;;;5.26;62.94;100945.47;10505347;28;20048;-84
2023/03/19 22:17:57;;;;;;;5.57;3.65;;;;;;;5.07;63.53;100941.25;10466761;28;20036;-84
2023/03/19 22:22:59;;;;;;;7.15;3.55;;;;;;;5.12;63.65;100944.06;10508703;28;20044;-84
2023/03/19 22:28:07;;;;;;;7.07;4.10;;;;;;;5.05;64.15;100937.94;10472756;28;20043;-85
2023/03/19 22:33:20;;;;;;;5.25;3.67;;;;;;;5.13;64.43;100934.84;10460970;28;20048;-83
2023/03/19 22:38:23;;;;;;;6.55;4.32;;;;;;;5.03;64.83;100930.00;10504226;28;20028;-84
2023/03/19 22:43:34;;;;;;;6.20;3.83;;;;;;;5.07;65.25;100925.75;10508556;28;20051;-84
2023/03/19 22:48:37;;;;;;;7.43;4.30;;;;;;;5.04;64.71;100928.94;10490644;28;20028;-84
2023/03/19 22:53:39;;;;;;;6.15;3.85;;;;;;;4.97;65.55;100916.50;10502081;28;20037;-84
2023/03/19 22:58:42;;;;;;;7.78;4.07;;;;;;;4.97;65.22;100914.63;10476161;28;20036;-84
2023/03/19 23:03:44;;;;;;;7.55;4.28;;;;;;;4.94;65.80;100909.66;10513318;28;20044;-83
2023/03/19 23:08:46;;;;;;;8.32;3.95;;;;;;;4.93;65.58;100907.19;10469152;28;20314;-83
2023/03/19 23:13:48;;;;;;;5.57;3.63;;;;;;;4.88;65.74;100897.03;10533651;28;20048;-83
2023/03/19 23:18:51;;;;;;;6.28;4.00;;;;;;;4.80;66.46;100889.22;10480750;28;20040;-82
2023/03/19 23:23:53;;;;;;;7.28;3.92;;;;;;;4.80;66.81;100891.94;10494133;28;20044;-82
2023/03/19 23:28:57;;;;;;;4.68;3.67;;;;;;;4.79;67.18;100882.13;10485406;28;20052;-84
2023/03/19 23:33:59;;;;;;;5.78;3.90;;;;;;;4.88;67.16;100883.44;10489608;28;20059;-83
2023/03/19 23:39:02;;;;;;;7.40;4.28;;;;;;;4.88;67.53;100878.00;10517203;28;20040;-83
2023/03/19 23:44:05;;;;;;;6.85;4.28;;;;;;;4.82;67.54;100876.22;10492771;28;20051;-82
2023/03/19 23:49:12;;;;;;;7.80;4.28;;;;;;;4.74;67.67;100874.69;10517715;28;20047;-85
2023/03/19 23:54:33;;;;;;;7.03;4.23;;;;;;;4.70;67.79;100869.97;10497953;28;20036;-84